^^
Grace C. Lehan Memorial Weather Station Historical Data
Daily Summary for June 18, 2021 Units:  English    Metric   Both
Daily Weekly Monthly Yearly
  High: Low: Average:
Temperature: 83.6 °F 68.9 °F 75.8 °F
Dew Point: 73.9 °F 65.2 °F 69.4 °F
Humidity: 91% 71% 81%
Wind Speed: 0.4mph 0mph 0mph
Wind Gust: 6mph - -
Wind- - SW
Pressure: 30.21 in 30.09 in -
Precipitation: 0.00 in    
 
 
Tabular Data for June 18, 2021
Time Temperature Dew Point Pressure Wind Wind Speed Wind Gust Humidity Rainfall Rate (Hourly) solar
00:04 71.5 °F 65.6 °F 30.17 in Calm     81.8% 0.00 in 0 W/m2
00:09 71.4 °F 65.6 °F 30.17 in Calm     82% 0.00 in 0 W/m2
00:14 71.4 °F 65.6 °F 30.17 in Calm     82% 0.00 in 0 W/m2
00:19 71.3 °F 65.5 °F 30.17 in Calm     82% 0.00 in 0 W/m2
00:24 71.3 °F 65.8 °F 30.17 in Calm     82.9% 0.00 in 0 W/m2
00:29 71.3 °F 65.5 °F 30.17 in Calm     82.1% 0.00 in 0 W/m2
00:34 71.2 °F 65.5 °F 30.17 in Calm     82.2% 0.00 in 0 W/m2
00:39 71.2 °F 65.7 °F 30.17 in Calm     83% 0.00 in 0 W/m2
00:44 71.1 °F 65.7 °F 30.17 in Calm     83% 0.00 in 0 W/m2
00:49 71 °F 65.6 °F 30.17 in Calm     83% 0.00 in 0 W/m2
00:54 71 °F 65.6 °F 30.17 in Calm     83% 0.00 in 0 W/m2
00:59 70.9 °F 65.5 °F 30.18 in Calm     83% 0.00 in 0 W/m2
01:04 70.8 °F 65.4 °F 30.18 in Calm     83% 0.00 in 0 W/m2
01:09 70.8 °F 65.7 °F 30.18 in Calm     83.9% 0.00 in 0 W/m2
01:14 70.7 °F 65.6 °F 30.18 in Calm     84% 0.00 in 0 W/m2
01:19 70.6 °F 65.5 °F 30.18 in Calm     84% 0.00 in 0 W/m2
01:24 70.5 °F 65.5 °F 30.18 in Calm     84% 0.00 in 0 W/m2
01:29 70.4 °F 65.4 °F 30.18 in Calm     84% 0.00 in 0 W/m2
01:34 70.4 °F 65.3 °F 30.18 in Calm     84% 0.00 in 0 W/m2
01:39 70.3 °F 65.2 °F 30.18 in Calm     84% 0.00 in 0 W/m2
01:44 70.3 °F 65.3 °F 30.18 in Calm     84.2% 0.00 in 0 W/m2
01:49 70.3 °F 65.5 °F 30.18 in Calm     84.8% 0.00 in 0 W/m2
01:54 70.2 °F 65.5 °F 30.18 in Calm     85% 0.00 in 0 W/m2
01:59 70.2 °F 65.5 °F 30.18 in Calm     85% 0.00 in 0 W/m2
02:04 70.2 °F 65.5 °F 30.18 in Calm     85% 0.00 in 0 W/m2
02:09 70.2 °F 65.5 °F 30.18 in Calm     85% 0.00 in 0 W/m2
02:14 70.1 °F 65.4 °F 30.18 in Calm     85% 0.00 in 0 W/m2
02:19 70.1 °F 65.5 °F 30.18 in Calm     85.5% 0.00 in 0 W/m2
02:24 70.1 °F 65.7 °F 30.18 in Calm     85.8% 0.00 in 0 W/m2
02:29 70.1 °F 65.7 °F 30.18 in Calm     86% 0.00 in 0 W/m2
02:34 70.1 °F 65.7 °F 30.18 in Calm     86% 0.00 in 0 W/m2
02:39 70.1 °F 65.7 °F 30.18 in Calm     86% 0.00 in 0 W/m2
02:44 70.1 °F 65.7 °F 30.18 in Calm     86% 0.00 in 0 W/m2
02:49 70.1 °F 65.7 °F 30.18 in Calm     86% 0.00 in 0 W/m2
02:54 70.1 °F 65.7 °F 30.18 in Calm     86% 0.00 in 0 W/m2
02:59 70.1 °F 65.7 °F 30.17 in Calm     86% 0.00 in 0 W/m2
03:04 70.1 °F 65.7 °F 30.17 in Calm     86% 0.00 in 0 W/m2
03:09 70.1 °F 65.7 °F 30.18 in Calm     86% 0.00 in 0 W/m2
03:14 70.1 °F 65.7 °F 30.18 in Calm     86% 0.00 in 0 W/m2
03:19 70.1 °F 65.7 °F 30.18 in Calm     86% 0.00 in 0 W/m2
03:24 70 °F 65.6 °F 30.18 in Calm     86% 0.00 in 0 W/m2
03:29 70 °F 65.6 °F 30.18 in Calm     86% 0.00 in 0 W/m2
03:34 69.9 °F 65.5 °F 30.18 in Calm     86% 0.00 in 0 W/m2
03:39 69.9 °F 65.5 °F 30.18 in Calm     86% 0.00 in 0 W/m2
03:44 69.8 °F 65.5 °F 30.18 in Calm     86% 0.00 in 0 W/m2
03:49 69.8 °F 65.4 °F 30.18 in Calm     86% 0.00 in 0 W/m2
03:54 69.8 °F 65.5 °F 30.18 in Calm     86.4% 0.00 in 0 W/m2
03:59 69.7 °F 65.7 °F 30.18 in Calm     87% 0.00 in 0 W/m2
04:04 69.8 °F 65.8 °F 30.18 in Calm     87% 0.00 in 0 W/m2
04:09 69.8 °F 65.9 °F 30.18 in Calm     87.5% 0.00 in 0 W/m2
04:14 69.8 °F 65.8 °F 30.18 in Calm     87% 0.00 in 0 W/m2
04:19 69.9 °F 65.8 °F 30.18 in Calm     87% 0.00 in 0 W/m2
04:24 69.9 °F 65.9 °F 30.18 in Calm     87% 0.00 in 0 W/m2
04:29 69.9 °F 65.9 °F 30.18 in Calm     87% 0.00 in 0 W/m2
04:34 69.9 °F 65.9 °F 30.18 in Calm     87% 0.00 in 0 W/m2
04:39 69.9 °F 65.9 °F 30.18 in Calm     87% 0.00 in 0 W/m2
04:44 69.9 °F 65.9 °F 30.18 in Calm     87% 0.00 in 0 W/m2
04:49 69.9 °F 65.9 °F 30.18 in Calm     87.1% 0.00 in 0 W/m2
04:54 69.8 °F 66.1 °F 30.18 in Calm     88% 0.00 in 0 W/m2
04:59 69.7 °F 66 °F 30.18 in Calm     88% 0.00 in 0 W/m2
05:04 69.7 °F 66 °F 30.18 in Calm     88% 0.00 in 0 W/m2
05:09 69.6 °F 65.9 °F 30.18 in Calm     88% 0.00 in 0 W/m2
05:14 69.6 °F 65.9 °F 30.18 in Calm     88% 0.00 in 0 W/m2
05:19 69.5 °F 65.8 °F 30.18 in Calm     88% 0.00 in 0 W/m2
05:24 69.5 °F 65.7 °F 30.19 in Calm     88% 0.00 in 0 W/m2
05:29 69.4 °F 65.7 °F 30.19 in Calm     88% 0.00 in 0 W/m2
05:34 69.3 °F 65.6 °F 30.19 in Calm     88% 0.00 in 0 W/m2
05:39 69.2 °F 65.5 °F 30.19 in Calm     88% 0.00 in 0 W/m2
05:44 69.2 °F 65.5 °F 30.19 in Calm     88% 0.00 in 0 W/m2
05:49 69.1 °F 65.7 °F 30.19 in Calm     89% 0.00 in 0 W/m2
05:54 69 °F 65.6 °F 30.19 in Calm     89% 0.00 in 0 W/m2
05:59 69 °F 65.6 °F 30.19 in Calm     89% 0.00 in 0 W/m2
06:04 68.9 °F 65.7 °F 30.19 in Calm     89.5% 0.00 in 0 W/m2
06:09 68.9 °F 65.8 °F 30.19 in Calm     90% 0.00 in 0 W/m2
06:14 68.9 °F 65.8 °F 30.19 in Calm     90% 0.00 in 7 W/m2
06:19 68.9 °F 65.9 °F 30.19 in Calm     90% 0.00 in 9 W/m2
06:24 69 °F 65.9 °F 30.19 in Calm     90% 0.00 in 12 W/m2
06:29 69 °F 65.9 °F 30.19 in Calm     90% 0.00 in 18 W/m2
06:34 69.1 °F 66 °F 30.20 in Calm     90% 0.00 in 25 W/m2
06:39 69.2 °F 66.4 °F 30.20 in Calm     90.9% 0.00 in 33 W/m2
06:44 69.3 °F 66.5 °F 30.20 in Calm     91% 0.00 in 42 W/m2
06:49 69.4 °F 66.5 °F 30.20 in Calm     90.7% 0.00 in 62 W/m2
06:54 69.5 °F 66.5 °F 30.20 in Calm     90.1% 0.00 in 62 W/m2
06:59 69.7 °F 66.9 °F 30.20 in Calm     91% 0.00 in 81 W/m2
07:04 69.9 °F 67.2 °F 30.20 in Calm     91% 0.00 in 202 W/m2
07:09 70.4 °F 67.7 °F 30.20 in Calm     91% 0.00 in 202 W/m2
07:14 71 °F 68.1 °F 30.21 in Calm     90.5% 0.00 in 186 W/m2
07:19 71.6 °F 68.3 °F 30.21 in Calm     89.3% 0.00 in 169 W/m2
07:24 72.2 °F 68.5 °F 30.21 in Calm     88.2% 0.00 in 148 W/m2
07:29 72.7 °F 68.7 °F 30.20 in Calm     87% 0.00 in 181 W/m2
07:34 73.3 °F 69.1 °F 30.20 in Calm     86.5% 0.00 in 239 W/m2
07:39 73.9 °F 69.1 °F 30.20 in Calm     85.1% 0.00 in 250 W/m2
07:44 74.5 °F 69.6 °F 30.21 in Calm     84.6% 0.00 in 250 W/m2
07:49 75.1 °F 69.6 °F 30.21 in Calm     83.1% 0.00 in 183 W/m2
07:54 75.4 °F 69.7 °F 30.21 in Calm     82.3% 0.00 in 239 W/m2
07:59 75.7 °F 69.8 °F 30.21 in Calm   3 mph 82% 0.00 in 283 W/m2
08:09 76.5 °F 70.2 °F 30.21 in Calm     80.9% 0.00 in 360 W/m2
08:14 77.1 °F 70.2 °F 30.21 in Calm     79.4% 0.00 in 390 W/m2
08:19 77.6 °F 70.5 °F 30.21 in Calm     79% 0.00 in 390 W/m2
08:24 78 °F 70.6 °F 30.21 in Calm     78% 0.00 in 512 W/m2
08:29 78.7 °F 71.3 °F 30.20 in Calm     78.2% 0.00 in 469 W/m2
08:34 79.2 °F 71.1 °F 30.20 in Calm     76.5% 0.00 in 309 W/m2
08:39 79.5 °F 71.2 °F 30.20 in Calm     75.7% 0.00 in 512 W/m2
08:44 79.7 °F 71.3 °F 30.20 in Calm     75.6% 0.00 in 478 W/m2
08:49 79.9 °F 71.3 °F 30.20 in Calm     75.1% 0.00 in 417 W/m2
08:54 80 °F 71.3 °F 30.20 in Calm     75% 0.00 in 432 W/m2
08:59 80.2 °F 71.5 °F 30.20 in Calm     74.8% 0.00 in 394 W/m2
09:04 80.3 °F 71.3 °F 30.20 in Calm   1 mph 74.2% 0.00 in 445 W/m2
09:09 80.5 °F 71.8 °F 30.20 in Calm   1 mph 74.7% 0.00 in 526 W/m2
09:14 80.9 °F 71.9 °F 30.20 in SW 0.1 mph 1 mph 74.4% 0.00 in 311 W/m2
09:19 80.9 °F 71.7 °F 30.20 in Calm   1 mph 73.6% 0.00 in 302 W/m2
09:24 80.7 °F 71.8 °F 30.19 in Calm   1 mph 74.3% 0.00 in 237 W/m2
09:29 80.5 °F 71.9 °F 30.19 in Calm   1 mph 75% 0.00 in 216 W/m2
09:34 80.4 °F 71.8 °F 30.19 in Calm   1 mph 75% 0.00 in 246 W/m2
09:39 80.3 °F 71.9 °F 30.19 in Calm   1 mph 75.7% 0.00 in 216 W/m2
09:44 80.2 °F 72.2 °F 30.20 in Calm   1 mph 76.7% 0.00 in 262 W/m2
09:49 80.3 °F 72.5 °F 30.20 in Calm   1 mph 77% 0.00 in 229 W/m2
09:54 80.5 °F 72.6 °F 30.20 in Calm   1 mph 76.7% 0.00 in 244 W/m2
09:59 80.8 °F 72.8 °F 30.20 in SW 0.2 mph 3 mph 76.7% 0.00 in 267 W/m2
10:04 80.9 °F 72.3 °F 30.20 in SW 0.1 mph 3 mph 75% 0.00 in 234 W/m2
10:09 80.9 °F 72.3 °F 30.19 in Calm   3 mph 75.1% 0.00 in 269 W/m2
10:14 80.9 °F 72.5 °F 30.19 in SW 0.4 mph 4 mph 75.5% 0.00 in 214 W/m2
10:19 81 °F 72.6 °F 30.19 in Calm   4 mph 75.6% 0.00 in 183 W/m2
10:24 81.1 °F 72.8 °F 30.19 in Calm   4 mph 76% 0.00 in 185 W/m2
10:29 81.1 °F 72.6 °F 30.19 in Calm   4 mph 75.4% 0.00 in 195 W/m2
10:34 81.2 °F 72.6 °F 30.19 in Calm   4 mph 75.2% 0.00 in 246 W/m2
10:39 81.3 °F 73.1 °F 30.19 in Calm   1 mph 76.2% 0.00 in 271 W/m2
10:44 81.4 °F 73 °F 30.19 in Calm   1 mph 75.9% 0.00 in 401 W/m2
10:49 81.5 °F 72.9 °F 30.19 in SW 0.1 mph 2 mph 75.3% 0.00 in 401 W/m2
10:54 81.7 °F 72.8 °F 30.19 in Calm   2 mph 74.5% 0.00 in 253 W/m2
10:59 81.8 °F 73 °F 30.18 in Calm   2 mph 74.7% 0.00 in 234 W/m2
11:04 82 °F 73.3 °F 30.18 in Calm   2 mph 75% 0.00 in 320 W/m2
11:09 82.1 °F 72.9 °F 30.18 in Calm   1 mph 73.9% 0.00 in 255 W/m2
11:14 82 °F 72.6 °F 30.18 in Calm   1 mph 73% 0.00 in 236 W/m2
11:19 82 °F 72.7 °F 30.18 in Calm   1 mph 73.5% 0.00 in 621 W/m2
11:24 82.1 °F 72.7 °F 30.18 in Calm   1 mph 73.4% 0.00 in 538 W/m2
11:29 82.4 °F 73.3 °F 30.18 in WSW 0.3 mph 3 mph 74.1% 0.00 in 691 W/m2
11:34 82.9 °F 73.2 °F 30.18 in SSE 0.3 mph 3 mph 72.7% 0.00 in 459 W/m2
11:39 83.1 °F 72.7 °F 30.18 in Calm   3 mph 71% 0.00 in 158 W/m2
11:44 83 °F 72.9 °F 30.18 in Calm   3 mph 71.8% 0.00 in 155 W/m2
11:49 82.8 °F 73.2 °F 30.17 in Calm   3 mph 72.8% 0.00 in 171 W/m2
11:54 82.6 °F 72.9 °F 30.17 in Calm   3 mph 72.5% 0.00 in 251 W/m2
11:59 82.5 °F 73 °F 30.17 in Calm   3 mph 73% 0.00 in 251 W/m2
12:09 82.7 °F 73.3 °F 30.17 in Calm   1 mph 73.3% 0.00 in 269 W/m2
12:14 82.8 °F 73.6 °F 30.17 in Calm   2 mph 73.7% 0.00 in 346 W/m2
12:19 83 °F 73.2 °F 30.17 in SE 0.1 mph 2 mph 72.5% 0.00 in 510 W/m2
12:24 83.2 °F 73.9 °F 30.17 in West 0.2 mph 4 mph 73.8% 0.00 in 471 W/m2
12:29 83.5 °F 73.6 °F 30.17 in Calm   4 mph 72.4% 0.00 in 325 W/m2
12:34 83.6 °F 73.5 °F 30.17 in Calm   4 mph 71.8% 0.00 in 253 W/m2
12:39 83.4 °F 73.3 °F 30.17 in Calm     71.6% 0.00 in 202 W/m2
12:44 83.3 °F 73.3 °F 30.17 in Calm     72% 0.00 in 195 W/m2
12:49 83.1 °F 73.1 °F 30.17 in Calm     71.9% 0.00 in 197 W/m2
12:54 82.9 °F 73.4 °F 30.17 in Calm   1 mph 73% 0.00 in 209 W/m2
13:00 82.6 °F 73.1 °F 30.17 in Calm   2 mph 73% 0.00 in 198 W/m2
14:00 83.1 °F 73.6 °F 30.16 in Calm   2 mph 73% 0.00 in 284 W/m2
14:30 83 °F 73.5 °F 30.15 in Calm   4 mph 73% 0.00 in 257 W/m2
15:00 83.4 °F 73.8 °F 30.14 in Calm   3 mph 73% 0.00 in 211 W/m2
15:30 82.7 °F 73.6 °F 30.14 in Calm   6 mph 74% 0.00 in 144 W/m2
16:09 82.6 °F 73.4 °F 30.13 in WSW 0.1 mph 1 mph 73.6% 0.00 in 156 W/m2
16:14 82.5 °F 73.4 °F 30.13 in Calm   1 mph 74% 0.00 in 148 W/m2
16:19 82.5 °F 73.4 °F 30.12 in Calm   1 mph 74.1% 0.00 in 162 W/m2
16:24 82.4 °F 73.1 °F 30.13 in WSW 0.2 mph 2 mph 73.5% 0.00 in 121 W/m2
16:29 82.3 °F 73.1 °F 30.13 in Calm   2 mph 73.7% 0.00 in 107 W/m2
16:34 82.3 °F 73.3 °F 30.13 in Calm   2 mph 74.3% 0.00 in 95 W/m2
16:39 82.2 °F 73.5 °F 30.13 in Calm   1 mph 74.9% 0.00 in 84 W/m2
16:44 82.2 °F 73.5 °F 30.13 in Calm   1 mph 75% 0.00 in 67 W/m2
16:49 82 °F 73.3 °F 30.13 in Calm   1 mph 75% 0.00 in 84 W/m2
16:54 81.8 °F 73.2 °F 30.13 in Calm   1 mph 75.2% 0.00 in 91 W/m2
16:59 81.7 °F 73.4 °F 30.13 in Calm   1 mph 75.8% 0.00 in 100 W/m2
17:04 81.7 °F 73.3 °F 30.13 in Calm   1 mph 75.8% 0.00 in 102 W/m2
17:09 81.6 °F 73.2 °F 30.13 in Calm   1 mph 75.8% 0.00 in 91 W/m2
17:14 81.4 °F 73.1 °F 30.13 in Calm   1 mph 76% 0.00 in 84 W/m2
17:19 81.2 °F 73.2 °F 30.13 in Calm   1 mph 76.6% 0.00 in 98 W/m2
17:24 81.1 °F 73.2 °F 30.13 in Calm   1 mph 77% 0.00 in 109 W/m2
17:29 81.1 °F 73.3 °F 30.12 in Calm   1 mph 77.2% 0.00 in 127 W/m2
17:34 81.2 °F 73.4 °F 30.13 in Calm   1 mph 77.4% 0.00 in 153 W/m2
17:39 81.2 °F 73.3 °F 30.12 in WSW 0.1 mph 2 mph 77% 0.00 in 153 W/m2
17:44 81.3 °F 73.2 °F 30.12 in Calm   2 mph 76.5% 0.00 in 97 W/m2
17:49 81.3 °F 73 °F 30.12 in Calm   2 mph 76% 0.00 in 74 W/m2
17:54 81.1 °F 72.8 °F 30.13 in Calm   2 mph 76% 0.00 in 74 W/m2
17:59 80.9 °F 72.7 °F 30.13 in SW 0.1 mph 2 mph 76% 0.00 in 83 W/m2
18:04 80.7 °F 72.8 °F 30.13 in SW 0.1 mph 2 mph 76.9% 0.00 in 86 W/m2
18:09 80.6 °F 72.6 °F 30.12 in SW 0.1 mph 3 mph 76.8% 0.00 in 95 W/m2
18:14 80.5 °F 72.6 °F 30.12 in Calm   3 mph 77% 0.00 in 88 W/m2
18:19 80.4 °F 72.5 °F 30.12 in Calm   3 mph 77% 0.00 in 72 W/m2
18:24 80.4 °F 72.9 °F 30.12 in Calm   3 mph 78% 0.00 in 69 W/m2
18:29 80.4 °F 72.7 °F 30.11 in SW 0.3 mph 5 mph 77.4% 0.00 in 69 W/m2
18:34 80.3 °F 72.5 °F 30.11 in SW 0.3 mph 5 mph 77% 0.00 in 54 W/m2
18:39 80.2 °F 72.4 °F 30.11 in SSW 0.1 mph 3 mph 77% 0.00 in 51 W/m2
18:44 80.1 °F 72.2 °F 30.11 in Calm   3 mph 77% 0.00 in 53 W/m2
19:00 79.7 °F 72.2 °F 30.11 in Calm   3 mph 78% 0.00 in 42 W/m2
19:30 78.8 °F 71.7 °F 30.12 in Calm   3 mph 79% 0.00 in 10 W/m2
20:09 77.5 °F 71.5 °F 30.12 in Calm   3 mph 81.9% 0.00 in 10 W/m2
20:14 77.3 °F 71.4 °F 30.11 in Calm   1 mph 82% 0.00 in 0 W/m2
20:19 77.2 °F 71.3 °F 30.11 in Calm   1 mph 82% 0.00 in 0 W/m2
20:24 77.1 °F 71.5 °F 30.11 in Calm   1 mph 82.9% 0.00 in 0 W/m2
20:29 77 °F 71.4 °F 30.11 in Calm   1 mph 83% 0.00 in 0 W/m2
20:34 76.9 °F 71.3 °F 30.11 in Calm   1 mph 83% 0.00 in 0 W/m2
20:39 76.8 °F 71.4 °F 30.11 in Calm     83.6% 0.00 in 0 W/m2
20:44 76.7 °F 71.5 °F 30.11 in Calm     84% 0.00 in 0 W/m2
20:49 76.6 °F 71.1 °F 30.11 in Calm     83.1% 0.00 in 0 W/m2
20:54 76.5 °F 71 °F 30.12 in Calm     83.1% 0.00 in 0 W/m2
20:59 76.4 °F 70.9 °F 30.12 in Calm     83% 0.00 in 0 W/m2
21:04 76.4 °F 70.8 °F 30.12 in Calm     83% 0.00 in 0 W/m2
21:09 76.3 °F 70.5 °F 30.12 in Calm     82.3% 0.00 in 0 W/m2
21:14 76.2 °F 70.2 °F 30.12 in Calm     81.6% 0.00 in 0 W/m2
21:19 76.1 °F 69.7 °F 30.12 in South 0.1 mph 1 mph 80.6% 0.00 in 0 W/m2
21:24 76 °F 69.4 °F 30.12 in Calm   1 mph 80% 0.00 in 0 W/m2
21:29 75.9 °F 69.3 °F 30.13 in Calm   1 mph 80% 0.00 in 0 W/m2
21:34 75.9 °F 69.3 °F 30.13 in Calm   1 mph 80% 0.00 in 0 W/m2
21:39 75.9 °F 69.3 °F 30.13 in Calm     80% 0.00 in 0 W/m2
21:44 75.8 °F 68.8 °F 30.12 in Calm     79% 0.00 in 0 W/m2
21:49 75.8 °F 68.8 °F 30.12 in Calm     79% 0.00 in 0 W/m2
21:54 75.7 °F 68.7 °F 30.12 in Calm     79% 0.00 in 0 W/m2
21:59 75.7 °F 68.7 °F 30.11 in Calm     79% 0.00 in 0 W/m2
22:04 75.6 °F 68.6 °F 30.11 in Calm     79% 0.00 in 0 W/m2
22:09 75.6 °F 68.6 °F 30.11 in Calm     79% 0.00 in 0 W/m2
22:14 75.5 °F 68.5 °F 30.11 in Calm     79% 0.00 in 0 W/m2
22:19 75.5 °F 68.5 °F 30.10 in Calm     79% 0.00 in 0 W/m2
22:24 75.4 °F 68.6 °F 30.10 in Calm     79.3% 0.00 in 0 W/m2
22:29 75.4 °F 68.8 °F 30.10 in Calm     80% 0.00 in 0 W/m2
22:34 75.3 °F 68.7 °F 30.10 in Calm     80% 0.00 in 0 W/m2
22:39 75.3 °F 68.7 °F 30.10 in Calm     80% 0.00 in 0 W/m2
22:44 75.3 °F 68.7 °F 30.10 in South 0.1 mph 2 mph 80% 0.00 in 0 W/m2
22:49 75.2 °F 68.6 °F 30.10 in Calm   2 mph 80% 0.00 in 0 W/m2
22:54 75.1 °F 68.7 °F 30.10 in Calm   2 mph 80.5% 0.00 in 0 W/m2
22:59 75 °F 68.8 °F 30.10 in Calm   2 mph 81% 0.00 in 0 W/m2
23:04 75 °F 68.8 °F 30.10 in Calm   2 mph 81% 0.00 in 0 W/m2
23:09 75 °F 68.8 °F 30.10 in Calm     81% 0.00 in 0 W/m2
23:14 74.9 °F 68.8 °F 30.10 in Calm     81.2% 0.00 in 0 W/m2
23:19 74.9 °F 69.1 °F 30.10 in Calm     82% 0.00 in 0 W/m2
23:24 74.9 °F 69 °F 30.10 in Calm     82% 0.00 in 0 W/m2
23:29 74.9 °F 69 °F 30.10 in Calm     82% 0.00 in 0 W/m2
23:34 74.9 °F 69 °F 30.09 in Calm     82% 0.00 in 0 W/m2
23:39 74.9 °F 69 °F 30.09 in Calm     82% 0.00 in 0 W/m2
23:44 74.8 °F 69.2 °F 30.09 in Calm     82.7% 0.00 in 0 W/m2
23:49 74.8 °F 69.3 °F 30.09 in Calm     83% 0.00 in 0 W/m2
23:54 74.7 °F 69.2 °F 30.09 in Calm     83% 0.00 in 0 W/m2
23:59 74.7 °F 69.2 °F 30.09 in Calm     83% 0.00 in 0 W/m2
Hartford County Weather
Compliments of Weather Underground - 4 mb